Time;durP1;ratioP1;P1;durP2;ratioP2;P2;SDS_P1;SDS_P2;PMS_P1;PMS_P2;Temp;Humidity;BMP_temperature;BMP_pressure;BME280_temperature;BME280_humidity;BME280_pressure;Samples;Min_cycle;Max_cycle;Signal;HPM_P1;HPM_P2
2022/07/24 00:00:21;;;;;;;5.83;5.33;;;24.70;69.80;25.40;96835.00;;;;5074932;28;20209;-87
2022/07/24 00:02:58;;;;;;;5.07;4.77;;;24.70;69.70;25.30;96837.00;;;;5075234;28;20195;-88
2022/07/24 00:05:29;;;;;;;5.63;4.83;;;24.60;69.60;25.30;96843.00;;;;5074988;28;20269;-88
2022/07/24 00:07:56;;;;;;;5.13;4.73;;;24.60;69.70;25.20;96845.00;;;;5075206;28;20215;-87
2022/07/24 00:10:25;;;;;;;5.53;5.13;;;24.60;69.80;25.20;96841.00;;;;5074392;28;20205;-88
2022/07/24 00:12:53;;;;;;;5.87;5.07;;;24.60;70.00;25.20;96845.00;;;;5066455;28;20188;-88
2022/07/24 00:15:20;;;;;;;5.27;4.87;;;24.50;70.00;25.20;96848.00;;;;5074432;28;20281;-88
2022/07/24 00:17:50;;;;;;;5.33;4.93;;;24.50;70.10;25.20;96842.00;;;;5075398;28;20221;-87
2022/07/24 00:20:21;;;;;;;4.93;4.60;;;24.50;70.20;25.20;96841.00;;;;5074793;28;20195;-87
2022/07/24 00:22:48;;;;;;;5.37;4.97;;;24.50;70.20;25.20;96846.00;;;;5075077;28;20262;-87
2022/07/24 00:25:16;;;;;;;5.67;5.27;;;24.50;70.20;25.20;96847.00;;;;5074070;28;20250;-88
2022/07/24 00:27:48;;;;;;;5.63;5.23;;;24.50;70.10;25.20;96838.00;;;;5074389;28;20223;-87
2022/07/24 00:30:18;;;;;;;5.90;5.40;;;24.50;70.20;25.20;96838.00;;;;5074549;28;20237;-87
2022/07/24 00:32:45;;;;;;;5.50;5.00;;;24.40;70.20;25.20;96839.00;;;;5071800;28;20213;-87
2022/07/24 00:35:13;;;;;;;5.70;5.07;;;24.50;70.40;25.20;96837.00;;;;5056211;28;20202;-88
2022/07/24 00:37:40;;;;;;;5.63;5.23;;;24.50;70.50;25.20;96841.00;;;;5074062;28;20256;-89
2022/07/24 00:40:16;;;;;;;5.97;5.47;;;24.40;70.50;25.20;96835.00;;;;5070601;28;20184;-87
2022/07/24 00:42:44;;;;;;;6.00;5.60;;;24.40;70.70;25.20;96834.00;;;;5093090;28;20194;-88
2022/07/24 00:45:35;;;;;;;6.07;5.53;;;24.40;70.80;25.20;96841.00;;;;5076525;28;20301;-87
2022/07/24 00:48:04;;;;;;;6.27;5.87;;;24.40;71.20;25.20;96843.00;;;;5073738;28;20229;-88
2022/07/24 00:50:32;;;;;;;6.07;5.57;;;24.40;70.90;25.20;96844.00;;;;5074495;28;20212;-87
2022/07/24 00:52:59;;;;;;;6.00;5.47;;;24.40;71.10;25.20;96849.00;;;;5073182;28;20201;-87
2022/07/24 00:55:29;;;;;;;6.40;5.90;;;24.40;71.80;25.20;96849.00;;;;5074123;28;20213;-90
2022/07/24 00:57:59;;;;;;;5.73;5.33;;;24.40;71.10;25.20;96853.00;;;;5073291;28;20306;-88
2022/07/24 01:00:33;;;;;;;6.13;5.73;;;24.40;71.20;25.20;96847.00;;;;5073778;28;20602;-86
2022/07/24 01:03:06;;;;;;;6.63;5.83;;;24.40;71.40;25.10;96849.00;;;;5074049;28;20662;-86
2022/07/24 01:05:33;;;;;;;6.23;5.73;;;24.40;71.40;25.10;96838.00;;;;5074482;28;20303;-86
2022/07/24 01:08:07;;;;;;;6.47;5.80;;;24.40;71.20;25.10;96846.00;;;;5074237;28;20906;-86
2022/07/24 01:10:36;;;;;;;5.73;5.23;;;24.40;71.30;25.10;96852.00;;;;5074709;28;20240;-86
2022/07/24 01:13:17;;;;;;;6.00;5.50;;;24.40;71.40;25.10;96850.00;;;;5072958;28;20682;-86
2022/07/24 01:15:47;;;;;;;6.10;5.60;;;24.40;71.70;25.00;96850.00;;;;5065940;28;20244;-87
2022/07/24 01:18:20;;;;;;;5.80;5.40;;;24.30;71.40;25.00;96844.00;;;;5072830;28;20218;-86
2022/07/24 01:20:50;;;;;;;5.37;4.97;;;24.30;71.80;25.00;96844.00;;;;5072333;28;20184;-85
2022/07/24 01:23:18;;;;;;;5.93;5.53;;;24.30;71.70;25.00;96842.00;;;;5073312;28;20185;-86
2022/07/24 01:25:45;;;;;;;6.13;5.53;;;24.30;71.60;25.00;96840.00;;;;5073373;28;20274;-86
2022/07/24 01:28:15;;;;;;;5.93;5.43;;;24.30;71.60;25.00;96840.00;;;;5072557;28;20250;-86
2022/07/24 01:30:42;;;;;;;5.83;5.40;;;24.30;71.70;25.00;96845.00;;;;5072613;28;20202;-86
2022/07/24 01:33:13;;;;;;;6.17;5.67;;;24.30;71.80;24.90;96847.00;;;;5072560;28;20247;-86
2022/07/24 01:35:41;;;;;;;6.50;6.00;;;24.30;71.70;24.90;96851.00;;;;5073691;28;20210;-86
2022/07/24 01:38:17;;;;;;;6.53;6.00;;;24.20;71.70;24.90;96835.00;;;;5073545;28;20236;-85
2022/07/24 01:40:45;;;;;;;6.13;5.63;;;24.20;71.80;24.90;96838.00;;;;5073925;28;20222;-86
2022/07/24 01:43:13;;;;;;;6.40;5.57;;;24.20;71.90;24.90;96838.00;;;;5073323;28;20211;-86
2022/07/24 01:45:40;;;;;;;6.03;5.53;;;24.20;72.60;24.80;96836.00;;;;5073343;28;20687;-86
2022/07/24 01:48:08;;;;;;;6.23;5.73;;;24.20;71.90;24.80;96837.00;;;;5074557;28;20561;-87
2022/07/24 01:50:35;;;;;;;6.97;6.47;;;24.10;71.90;24.80;96832.00;;;;5079618;28;20194;-86
2022/07/24 01:53:03;;;;;;;5.97;5.57;;;24.10;71.90;24.80;96828.00;;;;5080294;28;20217;-86
2022/07/24 01:55:32;;;;;;;6.00;5.53;;;24.10;71.80;24.70;96827.00;;;;5086889;28;20986;-86
2022/07/24 01:57:59;;;;;;;6.40;5.87;;;24.10;72.00;24.70;96820.00;;;;5086816;28;20217;-86
2022/07/24 02:00:26;;;;;;;5.93;5.53;;;24.00;72.00;24.70;96818.00;;;;5079084;28;20268;-86
2022/07/24 02:02:54;;;;;;;6.77;6.27;;;24.00;72.20;24.60;96814.00;;;;5084306;28;20237;-86
2022/07/24 02:05:27;;;;;;;6.47;5.97;;;24.00;73.00;24.60;96815.00;;;;5073476;28;20195;-86
2022/07/24 02:08:01;;;;;;;6.53;6.03;;;24.00;72.20;24.60;96815.00;;;;5068909;28;20218;-86
2022/07/24 02:10:29;;;;;;;6.50;6.00;;;23.90;72.50;24.60;96813.00;;;;5081586;28;20195;-86
2022/07/24 02:13:01;;;;;;;6.70;6.20;;;23.90;72.30;24.50;96821.00;;;;5086862;28;20279;-86
2022/07/24 02:15:31;;;;;;;6.60;6.10;;;23.90;72.30;24.50;96815.00;;;;5081341;28;20203;-87
2022/07/24 02:18:01;;;;;;;6.03;5.57;;;23.90;72.30;24.50;96814.00;;;;5085552;28;20231;-86
2022/07/24 02:20:30;;;;;;;6.70;6.10;;;23.90;72.20;24.50;96812.00;;;;5082021;28;20563;-86
2022/07/24 02:22:57;;;;;;;6.10;5.60;;;23.80;72.00;24.40;96811.00;;;;5079171;28;20253;-86
2022/07/24 02:25:24;;;;;;;5.97;5.43;;;23.80;72.00;24.40;96814.00;;;;5079069;28;20604;-86
2022/07/24 02:27:52;;;;;;;6.93;6.43;;;23.80;72.20;24.40;96812.00;;;;5073197;28;20249;-86
2022/07/24 02:30:24;;;;;;;6.30;5.80;;;23.80;72.30;24.30;96818.00;;;;5074847;28;20223;-86
2022/07/24 02:32:51;;;;;;;6.13;5.73;;;23.70;72.50;24.30;96819.00;;;;5084909;28;20279;-86
2022/07/24 02:35:19;;;;;;;6.03;5.53;;;23.70;72.50;24.20;96808.00;;;;5080314;28;20249;-86
2022/07/24 02:37:47;;;;;;;6.20;5.63;;;23.60;72.60;24.20;96813.00;;;;5078868;28;20234;-86
2022/07/24 02:40:16;;;;;;;6.70;6.10;;;23.60;72.60;24.10;96812.00;;;;5079667;28;20204;-86
2022/07/24 02:42:46;;;;;;;6.57;5.97;;;23.50;72.60;24.10;96804.00;;;;5079328;28;20317;-86
2022/07/24 02:45:13;;;;;;;6.03;5.47;;;23.50;72.70;24.10;96806.00;;;;5078480;28;20203;-86
2022/07/24 02:47:51;;;;;;;6.07;5.67;;;23.50;72.60;24.10;96811.00;;;;5082208;28;20226;-86
2022/07/24 02:50:20;;;;;;;6.50;6.00;;;23.50;72.80;24.00;96813.00;;;;5081536;28;20191;-87
2022/07/24 02:52:47;;;;;;;6.60;6.10;;;23.40;72.60;24.00;96821.00;;;;5081002;28;20195;-87
2022/07/24 02:55:15;;;;;;;5.93;5.43;;;23.40;72.80;24.00;96813.00;;;;5079629;28;20198;-86
2022/07/24 02:57:43;;;;;;;6.07;5.67;;;23.40;72.90;24.00;96818.00;;;;5079146;28;20285;-86
2022/07/24 03:00:14;;;;;;;5.90;5.50;;;23.30;72.80;24.00;96815.00;;;;5076013;28;20192;-86
2022/07/24 03:02:41;;;;;;;6.40;5.90;;;23.30;72.70;23.90;96820.00;;;;5074207;28;20188;-86
2022/07/24 03:05:11;;;;;;;6.07;5.57;;;23.30;72.60;23.90;96818.00;;;;5078865;28;20203;-86
2022/07/24 03:07:39;;;;;;;6.80;6.27;;;23.30;72.70;23.90;96814.00;;;;5075335;28;20239;-86
2022/07/24 03:10:15;;;;;;;6.23;5.70;;;23.20;72.60;23.80;96816.00;;;;5075456;28;20211;-86
2022/07/24 03:12:45;;;;;;;5.97;5.47;;;23.20;72.70;23.80;96818.00;;;;5076538;28;20214;-85
2022/07/24 03:15:17;;;;;;;5.90;5.50;;;23.20;73.40;23.80;96818.00;;;;5075995;28;20191;-86
2022/07/24 03:17:53;;;;;;;8.83;6.40;;;23.20;72.60;23.80;96822.00;;;;5075998;28;20295;-86
2022/07/24 03:20:27;;;;;;;5.93;5.53;;;23.20;72.80;23.70;96820.00;;;;5076629;28;20200;-86
2022/07/24 03:22:54;;;;;;;6.07;5.63;;;23.10;72.80;23.70;96819.00;;;;5059209;28;20200;-86
2022/07/24 03:25:23;;;;;;;5.70;5.30;;;23.10;72.90;23.70;96819.00;;;;5074664;28;20192;-86
2022/07/24 03:27:53;;;;;;;5.97;5.47;;;23.10;73.10;23.70;96815.00;;;;5066584;28;20269;-86
2022/07/24 03:30:23;;;;;;;5.77;5.27;;;23.00;73.20;23.60;96825.00;;;;5075112;28;20184;-86
2022/07/24 03:32:51;;;;;;;5.73;5.33;;;23.00;73.20;23.50;96815.00;;;;5066334;28;20192;-85
2022/07/24 03:35:18;;;;;;;6.47;5.87;;;23.00;73.30;23.40;96820.00;;;;5073515;28;20691;-86
2022/07/24 03:37:47;;;;;;;6.30;5.70;;;22.90;73.40;23.40;96824.00;;;;5068402;28;20285;-86
2022/07/24 03:40:14;;;;;;;6.43;5.80;;;22.90;73.60;23.40;96824.00;;;;5075150;28;20556;-86
2022/07/24 03:42:42;;;;;;;5.87;5.37;;;22.80;73.70;23.30;96823.00;;;;5073318;28;20207;-86
2022/07/24 03:45:10;;;;;;;6.37;5.87;;;22.80;74.50;23.30;96829.00;;;;5061571;28;20255;-86
2022/07/24 03:47:38;;;;;;;6.17;5.77;;;22.80;73.90;23.30;96830.00;;;;5074857;28;20227;-85
2022/07/24 03:50:06;;;;;;;5.80;5.40;;;22.70;74.00;23.30;96829.00;;;;5077974;28;20192;-86
2022/07/24 03:52:34;;;;;;;5.77;5.27;;;22.70;74.00;23.30;96835.00;;;;5079123;28;20219;-86
2022/07/24 03:55:02;;;;;;;5.63;5.13;;;22.70;73.90;23.30;96836.00;;;;5075123;28;20203;-87
2022/07/24 03:57:30;;;;;;;5.40;5.07;;;22.70;73.90;23.30;96831.00;;;;5075291;28;20223;-86
2022/07/24 03:59:57;;;;;;;5.97;5.50;;;22.70;73.90;23.30;96838.00;;;;5070468;28;20196;-86
2022/07/24 04:02:25;;;;;;;5.90;5.40;;;22.70;73.80;23.30;96845.00;;;;5072996;28;20200;-86
2022/07/24 04:04:52;;;;;;;5.97;5.47;;;22.70;73.80;23.30;96841.00;;;;5074129;28;20282;-87
2022/07/24 04:07:19;;;;;;;5.37;4.90;;;22.70;73.80;23.30;96849.00;;;;5074323;28;20220;-87
2022/07/24 04:09:49;;;;;;;6.03;5.63;;;22.70;73.80;23.30;96846.00;;;;5074647;28;20196;-87
2022/07/24 04:12:18;;;;;;;6.50;6.00;;;22.70;74.60;23.30;96846.00;;;;5057459;22;20731;-85
2022/07/24 04:14:45;;;;;;;6.57;5.90;;;22.70;73.80;23.30;96844.00;;;;5044602;28;20196;-84
2022/07/24 04:17:12;;;;;;;6.83;6.17;;;22.70;73.80;23.30;96843.00;;;;5034273;28;20252;-85
2022/07/24 04:19:39;;;;;;;6.53;6.03;;;22.70;73.70;23.30;96846.00;;;;5033738;28;20232;-84
2022/07/24 04:22:07;;;;;;;6.13;5.70;;;22.70;73.60;23.30;96846.00;;;;5034028;28;20244;-84
2022/07/24 04:24:34;;;;;;;6.50;6.00;;;22.70;73.70;23.30;96846.00;;;;5030518;28;20197;-84
2022/07/24 04:27:01;;;;;;;6.10;5.70;;;22.60;73.70;23.30;96847.00;;;;5072774;22;20330;-85
2022/07/24 04:29:29;;;;;;;6.17;5.57;;;22.60;73.70;23.30;96846.00;;;;5093983;28;20851;-86
2022/07/24 04:31:57;;;;;;;6.37;5.87;;;22.60;74.40;23.30;96847.00;;;;5092387;28;20231;-86
2022/07/24 04:34:24;;;;;;;6.17;5.67;;;22.60;73.80;23.30;96843.00;;;;5093746;28;20279;-85
2022/07/24 04:36:51;;;;;;;5.77;5.27;;;22.60;73.80;23.30;96846.00;;;;5093887;28;20301;-86
2022/07/24 04:39:18;;;;;;;6.67;6.07;;;22.60;74.50;23.30;96853.00;;;;5092517;28;20191;-85
2022/07/24 04:41:45;;;;;;;6.27;5.77;;;22.60;73.80;23.40;96853.00;;;;5091752;28;20290;-85
2022/07/24 04:44:12;;;;;;;5.47;5.07;;;22.60;73.90;23.40;96846.00;;;;5092241;28;20253;-85
2022/07/24 04:46:41;;;;;;;6.10;5.43;;;22.70;73.90;23.40;96853.00;;;;5091335;28;20641;-85
2022/07/24 04:49:08;;;;;;;9.47;6.10;;;22.70;74.10;23.40;96847.00;;;;5092217;28;20238;-85
2022/07/24 04:51:35;;;;;;;6.13;5.73;;;22.70;74.20;23.50;96854.00;;;;5085818;28;20293;-86
2022/07/24 04:54:03;;;;;;;6.40;5.80;;;22.70;74.50;23.50;96843.00;;;;5090926;28;20285;-86
2022/07/24 04:56:32;;;;;;;6.80;6.30;;;22.70;74.70;23.50;96848.00;;;;5091160;28;20227;-85
2022/07/24 04:59:01;;;;;;;6.23;5.77;;;22.80;74.80;23.60;96851.00;;;;5090441;28;20203;-86
2022/07/24 05:01:28;;;;;;;6.77;6.17;;;22.80;74.80;23.60;96854.00;;;;5091490;28;20280;-85
2022/07/24 05:03:58;;;;;;;6.67;6.17;;;22.90;74.80;23.70;96865.00;;;;5091257;28;20194;-85
2022/07/24 05:06:26;;;;;;;7.03;6.43;;;22.90;74.80;23.70;96862.00;;;;5092222;28;20260;-84
2022/07/24 05:08:53;;;;;;;8.57;6.00;;;22.90;74.80;23.80;96860.00;;;;5090421;28;20630;-86
2022/07/24 05:11:20;;;;;;;6.47;5.90;;;23.00;74.80;23.90;96871.00;;;;5089078;28;20917;-85
2022/07/24 05:13:47;;;;;;;6.97;6.27;;;23.00;74.60;23.90;96869.00;;;;5086060;28;20192;-85
2022/07/24 05:16:15;;;;;;;6.47;5.97;;;23.10;74.50;24.00;96874.00;;;;5086790;28;20246;-85
2022/07/24 05:18:42;;;;;;;6.07;5.67;;;23.10;74.60;24.00;96869.00;;;;5085248;28;20258;-85
2022/07/24 05:21:10;;;;;;;6.13;5.63;;;23.20;74.80;24.10;96875.00;;;;5087751;28;20304;-85
2022/07/24 05:23:37;;;;;;;6.17;5.67;;;23.20;74.90;24.10;96867.00;;;;5089153;28;20227;-86
2022/07/24 05:26:07;;;;;;;6.70;5.90;;;23.30;74.80;24.20;96871.00;;;;5088323;28;20326;-85
2022/07/24 05:28:34;;;;;;;6.07;5.57;;;23.30;74.90;24.20;96871.00;;;;5090204;28;20229;-86
2022/07/24 05:31:01;;;;;;;6.93;5.97;;;23.40;74.90;24.30;96874.00;;;;5091777;28;20237;-86
2022/07/24 05:33:28;;;;;;;6.53;6.03;;;23.40;74.80;24.30;96876.00;;;;5090396;28;20267;-86
2022/07/24 05:35:55;;;;;;;6.17;5.67;;;23.50;74.60;24.40;96882.00;;;;5090637;28;20739;-85
2022/07/24 05:38:24;;;;;;;6.50;5.90;;;23.50;74.40;24.50;96879.00;;;;5089836;28;20194;-86
2022/07/24 05:40:51;;;;;;;6.93;6.40;;;23.60;74.30;24.50;96875.00;;;;5084351;28;20199;-86
2022/07/24 05:43:18;;;;;;;5.57;5.10;;;23.60;74.10;24.60;96876.00;;;;5091852;28;20234;-85
2022/07/24 05:45:45;;;;;;;6.33;5.83;;;23.70;74.20;24.60;96879.00;;;;5095344;28;20246;-86
2022/07/24 05:48:13;;;;;;;6.33;5.83;;;23.70;74.10;24.70;96883.00;;;;5083436;28;20280;-85
2022/07/24 05:50:41;;;;;;;6.70;6.10;;;23.80;74.10;24.70;96887.00;;;;5089095;28;20196;-86
2022/07/24 05:53:08;;;;;;;7.10;6.07;;;23.80;73.30;24.80;96882.00;;;;5084443;28;20287;-85
2022/07/24 05:55:37;;;;;;;6.87;6.27;;;23.90;73.20;24.80;96884.00;;;;5090081;28;20282;-85
2022/07/24 05:58:04;;;;;;;6.70;6.20;;;23.90;73.20;24.90;96878.00;;;;5089309;28;20228;-85
2022/07/24 06:00:31;;;;;;;7.37;6.73;;;23.90;72.90;24.90;96878.00;;;;5088592;28;20234;-86
2022/07/24 06:02:58;;;;;;;6.57;6.07;;;24.00;72.60;24.90;96877.00;;;;5083486;28;20238;-85
2022/07/24 06:05:25;;;;;;;6.87;6.33;;;24.00;72.60;25.00;96876.00;;;;5082127;28;20661;-85
2022/07/24 06:07:53;;;;;;;7.40;6.80;;;24.10;72.60;25.00;96884.00;;;;5106329;28;20254;-85
2022/07/24 06:10:20;;;;;;;6.87;6.37;;;24.10;72.40;25.00;96880.00;;;;5088086;28;20722;-85
2022/07/24 06:12:48;;;;;;;7.50;6.90;;;24.10;72.10;25.10;96877.00;;;;5088060;28;20219;-85
2022/07/24 06:15:15;;;;;;;7.03;6.53;;;24.20;72.00;25.10;96871.00;;;;5090214;28;20235;-85
2022/07/24 06:17:44;;;;;;;7.20;6.50;;;24.20;71.70;25.20;96879.00;;;;5090990;28;20278;-85
2022/07/24 06:20:12;;;;;;;7.10;6.60;;;24.30;71.70;25.20;96881.00;;;;5090682;28;20193;-83
2022/07/24 06:22:40;;;;;;;7.90;7.10;;;24.30;71.40;25.20;96882.00;;;;5094380;28;20220;-84
2022/07/24 06:25:09;;;;;;;7.17;6.57;;;24.30;71.20;25.30;96884.00;;;;5093881;28;20205;-84
2022/07/24 06:27:42;;;;;;;7.90;7.30;;;24.40;71.30;25.30;96878.00;;;;5094922;28;20257;-83
2022/07/24 06:30:14;;;;;;;7.87;7.17;;;24.40;71.20;25.40;96879.00;;;;5094680;28;20202;-83
2022/07/24 06:32:41;;;;;;;7.07;6.57;;;24.40;71.20;25.40;96876.00;;;;5096336;28;20634;-84
2022/07/24 06:35:09;;;;;;;8.00;7.30;;;24.50;71.40;25.40;96882.00;;;;5093757;28;20230;-84
2022/07/24 06:37:36;;;;;;;7.70;7.10;;;24.50;71.50;25.50;96871.00;;;;5094435;28;20301;-84
2022/07/24 06:40:05;;;;;;;7.57;6.90;;;24.60;71.60;25.60;96870.00;;;;5095493;28;20226;-84
2022/07/24 06:42:33;;;;;;;7.37;6.67;;;24.60;71.90;25.70;96875.00;;;;5094457;28;20198;-84
2022/07/24 06:45:01;;;;;;;6.93;6.27;;;24.70;71.90;25.80;96879.00;;;;5095114;28;20189;-85
2022/07/24 06:47:30;;;;;;;7.07;6.53;;;24.70;72.00;25.90;96889.00;;;;5092939;28;20264;-84
2022/07/24 06:49:57;;;;;;;7.30;6.70;;;24.80;71.70;26.00;96879.00;;;;5094591;28;20226;-82
2022/07/24 06:52:24;;;;;;;7.47;6.77;;;24.90;71.60;26.10;96887.00;;;;5094098;28;20199;-84
2022/07/24 06:54:52;;;;;;;7.40;6.70;;;25.00;71.00;26.10;96885.00;;;;5095552;28;20226;-84
2022/07/24 06:57:19;;;;;;;7.47;6.80;;;25.10;70.30;26.20;96884.00;;;;5095659;28;20313;-84
2022/07/24 06:59:46;;;;;;;7.70;7.00;;;25.10;70.10;26.20;96877.00;;;;5096816;28;20278;-82
2022/07/24 07:02:13;;;;;;;6.80;6.20;;;25.20;69.70;26.20;96884.00;;;;5094957;28;20229;-84
2022/07/24 07:04:42;;;;;;;7.20;6.50;;;25.30;69.80;26.30;96886.00;;;;5095237;28;20719;-84
2022/07/24 07:07:09;;;;;;;7.00;6.40;;;25.40;69.60;26.30;96891.00;;;;5094667;28;20215;-84
2022/07/24 07:09:36;;;;;;;7.27;6.67;;;25.40;69.70;26.40;96884.00;;;;5095565;28;20248;-83
2022/07/24 07:12:04;;;;;;;6.80;6.20;;;25.50;69.30;26.50;96888.00;;;;5094930;28;20190;-83
2022/07/24 07:14:31;;;;;;;7.13;6.43;;;25.60;69.60;26.50;96883.00;;;;5094285;28;20199;-85
2022/07/24 07:16:58;;;;;;;6.77;6.17;;;25.60;70.00;26.70;96885.00;;;;5090968;28;20242;-84
2022/07/24 07:19:26;;;;;;;7.33;6.73;;;25.70;70.40;26.80;96888.00;;;;5095361;28;20234;-85
2022/07/24 07:21:54;;;;;;;6.60;6.03;;;25.80;69.70;26.90;96890.00;;;;5094490;28;20199;-83
2022/07/24 07:24:22;;;;;;;6.80;6.20;;;25.90;69.60;27.10;96893.00;;;;5085786;28;20204;-83
2022/07/24 07:26:49;;;;;;;6.30;5.70;;;26.00;69.70;27.20;96888.00;;;;5090614;28;20246;-84
2022/07/24 07:29:16;;;;;;;6.43;5.90;;;26.10;69.90;27.40;96896.00;;;;5089853;28;20219;-84
2022/07/24 07:31:43;;;;;;;7.53;6.23;;;26.30;70.00;27.50;96894.00;;;;5095261;28;20234;-84
2022/07/24 07:34:10;;;;;;;5.90;5.47;;;26.40;69.70;27.70;96895.00;;;;5095207;28;20282;-83
2022/07/24 07:36:38;;;;;;;5.70;5.20;;;26.50;69.60;27.80;96891.00;;;;5094447;28;20297;-84
2022/07/24 07:39:06;;;;;;;6.83;6.23;;;26.60;69.20;28.00;96895.00;;;;5093901;28;20199;-84
2022/07/24 07:41:34;;;;;;;6.17;5.67;;;26.80;68.60;28.10;96894.00;;;;5094674;28;20634;-84
2022/07/24 07:44:01;;;;;;;5.60;5.20;;;26.90;69.10;28.30;96897.00;;;;5077027;28;20253;-84
2022/07/24 07:46:28;;;;;;;5.70;5.20;;;27.10;67.20;28.40;96895.00;;;;5101608;28;20230;-84
2022/07/24 07:48:55;;;;;;;5.67;5.27;;;27.20;67.10;28.60;96890.00;;;;5106172;28;20258;-83
2022/07/24 07:51:23;;;;;;;6.03;5.43;;;27.30;67.20;28.70;96896.00;;;;5094075;28;20194;-84
2022/07/24 07:53:50;;;;;;;5.77;5.27;;;27.50;67.30;28.80;96898.00;;;;5093518;28;20203;-84
2022/07/24 07:56:20;;;;;;;5.53;5.13;;;27.60;66.30;29.00;96891.00;;;;5093758;28;20247;-83
2022/07/24 07:58:47;;;;;;;6.20;4.90;;;27.70;65.70;29.10;96900.00;;;;5093198;28;20225;-84
2022/07/24 08:01:17;;;;;;;5.22;4.93;;;27.80;65.60;29.20;96900.00;;;;5092610;28;20250;-84
2022/07/24 08:03:44;;;;;;;5.20;4.80;;;28.00;65.50;29.40;96898.00;;;;5092282;28;20252;-83
2022/07/24 08:06:11;;;;;;;5.35;4.85;;;28.10;65.00;29.50;96903.00;;;;5094027;28;20692;-83
2022/07/24 08:08:39;;;;;;;5.25;4.85;;;28.20;64.00;29.70;96906.00;;;;5092104;28;20251;-84
2022/07/24 08:11:06;;;;;;;5.10;4.70;;;28.30;64.10;29.80;96911.00;;;;5093654;28;20252;-83
2022/07/24 08:13:35;;;;;;;5.10;4.70;;;28.50;63.10;29.90;96906.00;;;;5091910;28;20593;-84
2022/07/24 08:16:02;;;;;;;5.20;4.80;;;28.60;62.20;30.10;96903.00;;;;5092422;28;20245;-83
2022/07/24 08:18:29;;;;;;;4.32;4.03;;;28.70;62.70;30.20;96904.00;;;;5093566;28;20694;-83
2022/07/24 08:20:56;;;;;;;4.72;4.28;;;28.90;61.90;30.40;96908.00;;;;5093563;28;20640;-83
2022/07/24 08:23:23;;;;;;;4.85;4.45;;;29.00;61.60;30.50;96910.00;;;;5093546;28;20710;-83
2022/07/24 08:25:51;;;;;;;4.70;4.40;;;29.20;61.40;30.60;96901.00;;;;5051906;28;1158647;-83
2022/07/24 08:28:18;;;;;;;4.28;3.97;;;29.30;60.20;30.80;96905.00;;;;5088304;28;20210;-83
2022/07/24 08:30:47;;;;;;;4.57;4.22;;;29.40;60.00;30.90;96908.00;;;;5085697;28;20191;-83
2022/07/24 08:33:14;;;;;;;4.35;3.97;;;29.50;60.20;31.00;96905.00;;;;5093711;28;20231;-84
2022/07/24 08:35:41;;;;;;;4.15;3.85;;;29.70;59.70;31.20;96916.00;;;;5088367;28;20699;-83
2022/07/24 08:38:09;;;;;;;4.00;3.80;;;29.80;59.20;31.40;96903.00;;;;5092650;28;20230;-83
2022/07/24 08:40:39;;;;;;;3.97;3.67;;;29.90;58.80;31.50;96903.00;;;;5093873;28;20235;-83
2022/07/24 08:43:09;;;;;;;3.90;3.70;;;30.00;58.50;31.70;96907.00;;;;5094691;28;20223;-83
2022/07/24 08:45:40;;;;;;;3.78;3.47;;;30.20;57.90;31.80;96903.00;;;;5093403;28;20223;-83
2022/07/24 08:48:11;;;;;;;4.13;3.83;;;30.30;57.20;32.00;96911.00;;;;5091591;28;20898;-83
2022/07/24 08:50:42;;;;;;;4.28;3.60;;;30.50;57.20;32.20;96910.00;;;;5093616;28;20219;-84
2022/07/24 08:53:10;;;;;;;4.50;3.97;;;30.60;56.20;32.30;96916.00;;;;5093942;28;20314;-84
2022/07/24 08:55:38;;;;;;;7.57;6.88;;;30.70;55.50;32.50;96904.00;;;;5093530;28;20541;-83
2022/07/24 08:58:05;;;;;;;4.90;4.50;;;30.90;55.90;32.70;96908.00;;;;5092764;28;20609;-83
2022/07/24 09:00:33;;;;;;;4.13;3.78;;;31.00;55.70;32.80;96909.00;;;;5093255;28;20214;-84
2022/07/24 09:03:00;;;;;;;4.22;4.00;;;31.20;55.40;33.00;96905.00;;;;5094483;28;20223;-84
2022/07/24 09:05:31;;;;;;;4.32;3.92;;;31.30;55.00;33.10;96905.00;;;;5091774;28;20600;-84
2022/07/24 09:08:10;;;;;;;4.25;3.95;;;31.50;54.90;33.30;96900.00;;;;5093632;28;20298;-83
2022/07/24 09:10:37;;;;;;;4.32;3.92;;;31.60;54.00;33.40;96907.00;;;;5089733;28;20253;-83
2022/07/24 09:13:15;;;;;;;4.10;3.88;;;31.70;54.10;33.60;96901.00;;;;5084153;28;20235;-84
2022/07/24 09:15:48;;;;;;;4.53;4.13;;;31.80;53.60;33.80;96902.00;;;;5083615;28;20306;-84
2022/07/24 09:18:31;;;;;;;3.67;3.35;;;32.00;52.60;34.00;96895.00;;;;5092687;28;20630;-84
2022/07/24 09:21:12;;;;;;;4.00;3.70;;;32.20;52.10;34.20;96895.00;;;;5077123;28;20192;-84
2022/07/24 09:23:41;;;;;;;4.10;3.78;;;32.30;52.60;34.40;96893.00;;;;5092769;28;20219;-86
2022/07/24 09:26:08;;;;;;;4.05;3.67;;;32.50;52.30;34.60;96894.00;;;;5085751;28;20230;-84
2022/07/24 09:28:49;;;;;;;3.78;3.55;;;32.60;51.80;34.80;96901.00;;;;5091938;28;20268;-84
2022/07/24 09:31:16;;;;;;;4.05;3.75;;;32.80;51.10;35.00;96907.00;;;;5092640;28;20233;-83
2022/07/24 09:33:44;;;;;;;4.82;4.05;;;32.90;51.20;35.10;96903.00;;;;5090197;28;20195;-84
2022/07/24 09:36:18;;;;;;;3.85;3.58;;;33.10;51.20;35.30;96903.00;;;;5077728;28;20301;-84
2022/07/24 09:38:50;;;;;;;4.05;3.63;;;33.30;50.50;35.50;96901.00;;;;5092578;28;20281;-84
2022/07/24 09:41:22;;;;;;;3.70;3.47;;;33.40;50.20;35.70;96902.00;;;;5092514;28;20268;-84
2022/07/24 09:43:59;;;;;;;3.40;3.17;;;33.60;49.50;35.80;96900.00;;;;5092916;28;20300;-83
2022/07/24 09:46:27;;;;;;;3.97;3.78;;;33.70;49.40;36.00;96899.00;;;;5092333;28;20230;-84
2022/07/24 09:48:57;;;;;;;4.38;4.07;;;33.90;50.30;36.20;96898.00;;;;5092481;28;20603;-84
2022/07/24 09:51:28;;;;;;;3.90;3.63;;;34.00;49.90;36.30;96896.00;;;;5073072;28;20200;-85
2022/07/24 09:53:59;;;;;;;3.75;3.25;;;34.20;49.30;36.50;96894.00;;;;5075213;28;20219;-84
2022/07/24 09:56:28;;;;;;;3.70;3.40;;;34.30;49.20;36.70;96898.00;;;;5080391;28;20215;-85
2022/07/24 09:58:59;;;;;;;3.38;3.17;;;34.40;49.10;36.80;96898.00;;;;5090310;28;20233;-85
2022/07/24 10:01:28;;;;;;;3.78;3.58;;;34.60;48.50;37.00;96899.00;;;;5095230;28;20194;-85
2022/07/24 10:03:58;;;;;;;4.22;3.92;;;34.70;48.20;37.10;96901.00;;;;5092708;28;20279;-85
2022/07/24 10:06:28;;;;;;;5.22;4.75;;;34.90;47.90;37.20;96898.00;;;;5092415;28;20571;-85
2022/07/24 10:08:57;;;;;;;28.33;24.58;;;35.00;47.80;37.40;96895.00;;;;5092379;28;20683;-86
2022/07/24 10:11:25;;;;;;;18.13;16.23;;;35.20;47.50;37.50;96900.00;;;;5096329;28;20545;-86
2022/07/24 10:13:53;;;;;;;7.82;7.18;;;35.40;47.80;37.60;96904.00;;;;5096466;28;20195;-86
2022/07/24 10:16:32;;;;;;;4.45;4.05;;;35.60;47.00;37.70;96896.00;;;;5096817;28;20227;-85
2022/07/24 10:19:01;;;;;;;3.70;3.50;;;35.80;44.90;37.70;96891.00;;;;5096903;28;20206;-85
2022/07/24 10:21:32;;;;;;;3.38;3.17;;;36.00;45.40;37.70;96891.00;;;;5096368;28;20248;-85
2022/07/24 10:24:42;;;;;;;9.35;8.43;;;36.10;45.40;37.80;96887.00;;;;5096849;28;20231;-85
2022/07/24 10:27:23;;;;;;;5.25;4.85;;;36.30;44.80;37.90;96880.00;;;;5076646;28;20225;-86
2022/07/24 10:29:54;;;;;;;3.88;3.58;;;36.50;45.50;37.90;96878.00;;;;5076222;28;20207;-86
2022/07/24 10:32:22;;;;;;;3.88;3.67;;;36.60;44.90;38.00;96881.00;;;;5093321;28;20195;-86
2022/07/24 10:35:07;;;;;;;4.07;3.78;;;36.70;45.00;38.10;96878.00;;;;5095858;28;20195;-87
2022/07/24 10:37:50;;;;;;;3.60;3.33;;;36.80;43.50;38.10;96882.00;;;;5096234;28;20246;-85
2022/07/24 10:40:31;;;;;;;3.15;2.97;;;36.90;43.10;38.10;96878.00;;;;5096555;28;20196;-84
2022/07/24 10:43:14;;;;;;;3.15;2.95;;;36.90;44.10;38.20;96873.00;;;;5095860;28;20732;-85
2022/07/24 10:45:44;;;;;;;2.80;2.70;;;37.00;43.30;38.20;96869.00;;;;5088360;28;20627;-86
2022/07/24 10:48:30;;;;;;;3.70;3.50;;;37.00;43.50;38.20;96875.00;;;;5094278;28;20689;-85
2022/07/24 10:51:07;;;;;;;4.20;3.05;;;37.10;41.90;38.10;96867.00;;;;5089116;28;20199;-85
2022/07/24 10:53:54;;;;;;;3.25;3.05;;;37.10;42.10;38.00;96871.00;;;;5096282;28;20211;-85
2022/07/24 10:56:29;;;;;;;2.72;2.53;;;37.10;42.00;37.70;96872.00;;;;5081226;28;20231;-86
2022/07/24 10:59:06;;;;;;;3.38;3.17;;;37.00;41.30;37.50;96872.00;;;;5096471;28;20202;-83
2022/07/24 11:01:42;;;;;;;3.30;3.10;;;36.80;41.10;37.30;96870.00;;;;5095709;28;20219;-85
2022/07/24 11:04:30;;;;;;;2.88;2.75;;;36.60;41.50;37.10;96865.00;;;;5095481;28;20195;-85